Terminal Aerodrome Forecast
Issued by NWS Wakefield, VA

Home | Current Version | Previous Version | Text Only | Print | Product List | Glossary On
Versions: 1 2 3 4 5 6 7 8 9 10 11 12 13 14 15 16 17 18
892
FTUS41 KAKQ 260446 AAB
TAFSBY
TAF AMD
KSBY 260446Z 2605/2624 21009KT P6SM VCTS BKN050CB
      TEMPO 2605/2606 30012G25KT 4SM TSRA BKN030CB
     FM260600 VRB04KT P6SM SCT060 BKN100
     FM261400 29006KT P6SM BKN150=

USA.gov is the U.S. government's official web portal to all federal, state and local government web resources and services.